Time;durP1;ratioP1;P1;durP2;ratioP2;P2;SDS_P1;SDS_P2;PMS_P1;PMS_P2;Temp;Humidity;BMP_temperature;BMP_pressure;BME280_temperature;BME280_humidity;BME280_pressure;Samples;Min_cycle;Max_cycle;Signal;HPM_P1;HPM_P2
2021/08/16 04:01:43;;;;;;;7.73;6.97;;;16.90;99.90;;;;;;5370918;23;20518;-68
2021/08/16 04:04:09;;;;;;;14.50;7.30;;;16.90;99.90;;;;;;4953463;29;20527;-68
2021/08/16 04:06:36;;;;;;;7.17;6.10;;;16.90;99.90;;;;;;4947890;28;20535;-68
2021/08/16 04:09:03;;;;;;;7.40;6.37;;;16.90;99.90;;;;;;4945532;29;20465;-68
2021/08/16 04:11:30;;;;;;;7.47;6.77;;;16.90;99.90;;;;;;4964909;28;20488;-68
2021/08/16 04:13:56;;;;;;;7.83;6.23;;;16.90;99.90;;;;;;4964937;28;20967;-68
2021/08/16 04:16:23;;;;;;;7.23;6.40;;;16.80;99.90;;;;;;4953895;28;20472;-68
2021/08/16 04:18:51;;;;;;;8.07;6.47;;;16.80;99.90;;;;;;4954158;29;20461;-68
2021/08/16 04:21:18;;;;;;;9.00;6.90;;;16.80;99.90;;;;;;4953498;28;20488;-68
2021/08/16 04:23:44;;;;;;;12.40;6.20;;;16.80;99.90;;;;;;4951987;28;20500;-68
2021/08/16 04:26:11;;;;;;;6.90;6.27;;;16.80;99.90;;;;;;4934744;29;20850;-68
2021/08/16 04:28:38;;;;;;;9.97;7.33;;;16.80;99.90;;;;;;4938640;28;20465;-68
2021/08/16 04:31:05;;;;;;;6.93;6.23;;;16.80;99.90;;;;;;4953710;29;20484;-68
2021/08/16 04:33:32;;;;;;;9.50;7.20;;;16.80;99.90;;;;;;4953275;28;20520;-68
2021/08/16 04:36:00;;;;;;;7.33;6.73;;;16.80;99.90;;;;;;4953338;29;20937;-69
2021/08/16 04:38:26;;;;;;;10.43;7.10;;;16.80;99.90;;;;;;4953932;29;20461;-68
2021/08/16 04:40:54;;;;;;;8.00;6.50;;;16.80;99.90;;;;;;4943003;28;20524;-68
2021/08/16 04:43:23;;;;;;;9.00;7.00;;;16.80;99.90;;;;;;4950499;29;20493;-69
2021/08/16 04:45:49;;;;;;;7.57;6.87;;;16.80;99.90;;;;;;4953069;28;20461;-68
2021/08/16 04:48:16;;;;;;;10.17;7.07;;;16.90;99.90;;;;;;4952672;29;20544;-67
2021/08/16 04:50:43;;;;;;;8.73;7.53;;;16.90;99.90;;;;;;4953750;28;20566;-67
2021/08/16 04:53:11;;;;;;;7.87;6.70;;;16.80;99.90;;;;;;4957032;28;20615;-67
2021/08/16 04:55:37;;;;;;;9.07;6.80;;;16.90;99.90;;;;;;4968258;28;20460;-67
2021/08/16 04:58:04;;;;;;;9.07;6.97;;;16.90;99.90;;;;;;4960348;28;20481;-68
2021/08/16 05:00:31;;;;;;;8.50;7.60;;;16.90;99.90;;;;;;4964985;28;20487;-69
2021/08/16 05:02:59;;;;;;;12.23;8.17;;;16.90;99.90;;;;;;4963349;28;20560;-68
2021/08/16 05:05:28;;;;;;;11.30;8.97;;;16.90;99.90;;;;;;4961374;28;20469;-69
2021/08/16 05:07:57;;;;;;;17.53;9.23;;;16.90;99.90;;;;;;4957919;28;20467;-68
2021/08/16 05:10:26;;;;;;;11.23;8.60;;;16.90;99.90;;;;;;4961108;28;20471;-68
2021/08/16 05:12:55;;;;;;;10.33;8.77;;;16.90;99.90;;;;;;4956285;29;20460;-68
2021/08/16 05:15:22;;;;;;;13.67;10.17;;;16.90;99.90;;;;;;4953139;28;20482;-68
2021/08/16 05:17:49;;;;;;;8.90;7.93;;;16.90;99.90;;;;;;4957476;29;20936;-68
2021/08/16 05:20:19;;;;;;;11.03;8.87;;;16.90;99.90;;;;;;4965539;28;20512;-68
2021/08/16 05:22:48;;;;;;;10.17;9.10;;;17.00;99.90;;;;;;4957113;29;20543;-68
2021/08/16 05:25:17;;;;;;;17.10;10.00;;;17.00;99.90;;;;;;4965630;28;20560;-68
2021/08/16 05:27:45;;;;;;;11.57;10.30;;;17.10;99.90;;;;;;4957492;29;20487;-68
2021/08/16 05:30:13;;;;;;;11.83;10.17;;;17.20;99.90;;;;;;4969790;28;20580;-68
2021/08/16 05:32:40;;;;;;;13.10;10.00;;;17.20;99.90;;;;;;4956927;29;20468;-68
2021/08/16 05:35:08;;;;;;;11.97;9.80;;;17.20;99.90;;;;;;4956139;28;20531;-68
2021/08/16 05:37:35;;;;;;;12.80;9.40;;;17.30;99.90;;;;;;4957124;28;20468;-68
2021/08/16 05:40:02;;;;;;;16.40;10.50;;;17.30;99.90;;;;;;4956141;28;20527;-67
2021/08/16 05:42:28;;;;;;;12.53;10.50;;;17.40;99.90;;;;;;4956424;29;20926;-68
2021/08/16 05:44:56;;;;;;;11.50;10.33;;;17.40;99.90;;;;;;4957048;28;20461;-67
2021/08/16 05:47:23;;;;;;;13.43;11.10;;;17.40;99.90;;;;;;4956507;28;20527;-68
2021/08/16 05:49:50;;;;;;;11.60;10.50;;;17.40;99.90;;;;;;4956874;28;21000;-68
2021/08/16 05:52:16;;;;;;;13.37;9.70;;;17.50;99.90;;;;;;4956038;29;20492;-68
2021/08/16 05:54:43;;;;;;;9.83;8.90;;;17.40;99.90;;;;;;4967460;28;20811;-68
2021/08/16 05:57:10;;;;;;;12.60;9.63;;;17.50;99.90;;;;;;4963314;28;20478;-68
2021/08/16 05:59:36;;;;;;;13.93;9.83;;;17.50;99.90;;;;;;4956733;28;20847;-68
2021/08/16 06:02:05;;;;;;;9.50;8.50;;;17.50;99.90;;;;;;4955544;29;20485;-67
2021/08/16 06:04:32;;;;;;;13.83;10.20;;;17.50;99.90;;;;;;4956159;28;20485;-68
2021/08/16 06:06:59;;;;;;;11.70;9.90;;;17.50;99.90;;;;;;4955736;29;20461;-68
2021/08/16 06:09:25;;;;;;;10.23;9.43;;;17.40;99.90;;;;;;4956826;28;20457;-68
2021/08/16 06:11:52;;;;;;;10.37;9.33;;;17.40;99.90;;;;;;4955803;29;20481;-68
2021/08/16 06:14:19;;;;;;;13.60;10.30;;;17.40;99.90;;;;;;4955157;28;20457;-68
2021/08/16 06:16:45;;;;;;;16.43;8.90;;;17.40;99.90;;;;;;4956289;29;20460;-68
2021/08/16 06:19:14;;;;;;;17.87;10.60;;;17.50;99.90;;;;;;4956435;28;20822;-68
2021/08/16 06:21:42;;;;;;;13.23;10.33;;;17.50;99.90;;;;;;4955446;29;20595;-70
2021/08/16 06:24:09;;;;;;;12.03;10.67;;;17.60;99.90;;;;;;4968878;28;21003;-68
2021/08/16 06:26:36;;;;;;;12.37;10.13;;;17.80;99.90;;;;;;4966874;28;20453;-68
2021/08/16 06:29:03;;;;;;;9.80;8.37;;;18.00;99.90;;;;;;4955897;29;20465;-68
2021/08/16 06:31:30;;;;;;;11.23;8.60;;;18.10;99.90;;;;;;4956035;28;20828;-68
2021/08/16 06:33:56;;;;;;;10.90;9.00;;;18.00;99.90;;;;;;4955715;28;20840;-68
2021/08/16 06:36:24;;;;;;;9.80;8.70;;;18.00;99.90;;;;;;4955386;28;20475;-67
2021/08/16 06:38:51;;;;;;;10.30;9.00;;;18.10;99.90;;;;;;4955198;29;20512;-67
2021/08/16 06:41:19;;;;;;;11.40;8.10;;;18.10;99.90;;;;;;4955372;28;20859;-67
2021/08/16 06:43:46;;;;;;;9.80;8.70;;;18.30;99.90;;;;;;4948663;29;20535;-68
2021/08/16 06:46:13;;;;;;;14.20;8.50;;;18.40;99.90;;;;;;4955716;28;20905;-68
2021/08/16 06:48:40;;;;;;;13.57;8.00;;;18.50;99.90;;;;;;4955467;28;20528;-68
2021/08/16 06:51:06;;;;;;;9.97;8.63;;;18.50;99.90;;;;;;4954797;28;20910;-68
2021/08/16 06:53:34;;;;;;;12.43;8.50;;;18.40;99.90;;;;;;4937139;29;20473;-68
2021/08/16 06:56:01;;;;;;;15.57;8.33;;;18.20;99.90;;;;;;4951188;28;20892;-68
2021/08/16 06:58:28;;;;;;;11.43;9.97;;;18.10;99.90;;;;;;4956879;28;20496;-68
2021/08/16 07:00:54;;;;;;;17.53;8.97;;;18.10;99.90;;;;;;4959463;28;20550;-68
2021/08/16 07:03:21;;;;;;;13.53;8.50;;;18.10;99.90;;;;;;4973987;28;21014;-67
2021/08/16 07:05:47;;;;;;;19.03;8.83;;;18.10;99.90;;;;;;4968221;28;20468;-67
2021/08/16 07:08:15;;;;;;;13.77;8.83;;;18.10;99.90;;;;;;4955218;29;20472;-67
2021/08/16 07:10:43;;;;;;;10.70;8.27;;;18.10;99.90;;;;;;4958204;28;20483;-68
2021/08/16 07:13:10;;;;;;;14.90;9.30;;;18.10;99.90;;;;;;4970851;28;20585;-67
2021/08/16 07:15:37;;;;;;;14.43;9.67;;;18.10;99.90;;;;;;4955844;28;20576;-67
2021/08/16 07:18:05;;;;;;;9.10;8.10;;;18.10;99.90;;;;;;4955190;28;20543;-67
2021/08/16 07:20:31;;;;;;;8.67;7.80;;;18.10;99.90;;;;;;4954631;28;20496;-67
2021/08/16 07:22:58;;;;;;;11.63;8.93;;;18.20;99.90;;;;;;4954749;28;20465;-67
2021/08/16 07:25:25;;;;;;;12.23;8.67;;;18.20;99.90;;;;;;4934784;28;20465;-67
2021/08/16 07:27:52;;;;;;;11.00;8.10;;;18.10;99.90;;;;;;4940733;29;20536;-68
2021/08/16 07:30:19;;;;;;;11.60;7.53;;;18.10;99.90;;;;;;4954631;28;20953;-67
2021/08/16 07:32:46;;;;;;;9.80;7.80;;;18.10;99.90;;;;;;4955061;28;20983;-67
2021/08/16 07:35:12;;;;;;;8.90;8.10;;;18.10;99.90;;;;;;4973634;28;20538;-68
2021/08/16 07:37:39;;;;;;;10.17;8.73;;;18.10;99.90;;;;;;4956992;28;20465;-68
2021/08/16 07:40:07;;;;;;;9.07;8.20;;;18.10;99.90;;;;;;4954025;28;20533;-67
2021/08/16 07:42:34;;;;;;;10.17;8.30;;;18.20;99.90;;;;;;4950197;28;20543;-66
2021/08/16 07:45:02;;;;;;;8.80;7.67;;;18.20;99.90;;;;;;4964692;28;20540;-67
2021/08/16 07:47:28;;;;;;;8.60;7.80;;;18.20;99.90;;;;;;4972050;28;20960;-66
2021/08/16 07:49:55;;;;;;;11.53;8.20;;;18.30;99.90;;;;;;4953946;28;20472;-67
2021/08/16 07:52:21;;;;;;;8.87;8.07;;;18.40;99.90;;;;;;4964684;28;20514;-68
2021/08/16 07:54:48;;;;;;;11.77;8.43;;;18.50;99.90;;;;;;4971758;28;20467;-68
2021/08/16 07:57:15;;;;;;;11.73;7.70;;;18.50;99.90;;;;;;4953792;29;20871;-68
2021/08/16 07:59:41;;;;;;;13.00;7.40;;;18.50;99.90;;;;;;4954681;28;20528;-67
2021/08/16 08:02:09;;;;;;;8.30;7.23;;;18.50;99.90;;;;;;4953419;29;20492;-67
2021/08/16 08:04:36;;;;;;;9.10;7.73;;;18.50;99.90;;;;;;4954401;28;20819;-67
2021/08/16 08:07:03;;;;;;;18.00;8.07;;;18.50;99.90;;;;;;4972695;28;20475;-68
2021/08/16 08:09:31;;;;;;;8.43;7.37;;;18.60;99.90;;;;;;4959865;28;20468;-68
2021/08/16 08:11:57;;;;;;;14.90;8.00;;;18.70;99.90;;;;;;4953079;29;20485;-67
2021/08/16 08:14:24;;;;;;;10.00;7.37;;;18.70;99.90;;;;;;4965973;28;20467;-68
2021/08/16 08:16:54;;;;;;;10.90;6.73;;;18.80;99.90;;;;;;4969726;28;20492;-68
2021/08/16 08:19:21;;;;;;;9.30;7.80;;;18.90;99.90;;;;;;4967106;28;20465;-67
2021/08/16 08:21:48;;;;;;;7.57;6.90;;;18.90;99.90;;;;;;4954161;28;20547;-67
2021/08/16 08:24:15;;;;;;;8.83;6.37;;;18.90;99.90;;;;;;4966514;28;20472;-68
2021/08/16 08:26:41;;;;;;;9.40;6.90;;;19.00;99.90;;;;;;4953468;29;20464;-67
2021/08/16 08:29:08;;;;;;;9.70;7.20;;;19.10;99.90;;;;;;4961811;28;20464;-67
2021/08/16 08:31:37;;;;;;;9.63;6.30;;;19.30;99.90;;;;;;4969185;28;20969;-67
2021/08/16 08:34:04;;;;;;;13.17;7.53;;;19.40;99.90;;;;;;4971098;28;20952;-67
2021/08/16 08:36:32;;;;;;;8.57;7.70;;;19.40;99.90;;;;;;4971855;28;20464;-67
2021/08/16 08:38:59;;;;;;;10.10;7.27;;;19.40;99.90;;;;;;4973978;28;20463;-67
2021/08/16 08:41:29;;;;;;;6.87;6.27;;;19.40;99.90;;;;;;4970351;28;20476;-67
2021/08/16 08:43:56;;;;;;;8.53;7.40;;;19.50;99.90;;;;;;4956317;28;20496;-67
2021/08/16 08:46:23;;;;;;;7.50;6.47;;;19.60;99.90;;;;;;4954669;28;20468;-67
2021/08/16 08:48:50;;;;;;;9.00;7.67;;;19.60;99.90;;;;;;4957016;28;20479;-67
2021/08/16 08:51:20;;;;;;;7.10;6.43;;;19.70;99.90;;;;;;4955499;28;20492;-68
2021/08/16 08:53:48;;;;;;;7.40;6.60;;;19.70;99.90;;;;;;4956481;29;21012;-68
2021/08/16 08:56:16;;;;;;;6.60;6.03;;;19.90;99.90;;;;;;4972149;28;20460;-68
2021/08/16 08:58:42;;;;;;;7.20;5.80;;;20.00;99.90;;;;;;4958320;28;20459;-67
2021/08/16 09:01:09;;;;;;;10.70;7.40;;;20.10;99.90;;;;;;4971592;28;20491;-68
2021/08/16 09:03:46;;;;;;;7.20;5.80;;;20.30;99.90;;;;;;4967852;28;20554;-68
2021/08/16 09:06:16;;;;;;;13.83;6.10;;;20.40;99.90;;;;;;4956463;28;20520;-68
2021/08/16 09:08:43;;;;;;;10.27;5.70;;;20.60;99.90;;;;;;4957676;28;20481;-68
2021/08/16 09:11:13;;;;;;;8.67;6.63;;;20.80;99.90;;;;;;4955631;28;20563;-68
2021/08/16 09:13:51;;;;;;;6.13;5.40;;;20.80;99.90;;;;;;4956641;28;20456;-68
2021/08/16 09:16:18;;;;;;;7.70;5.87;;;20.60;99.90;;;;;;4957103;28;20494;-68
2021/08/16 09:18:45;;;;;;;7.57;6.97;;;20.40;99.90;;;;;;4962559;28;20988;-68
2021/08/16 09:21:12;;;;;;;7.63;6.17;;;20.30;99.90;;;;;;4956431;28;20488;-68
2021/08/16 09:23:47;;;;;;;8.40;6.93;;;20.20;99.90;;;;;;4961223;28;20487;-68
2021/08/16 09:26:19;;;;;;;7.53;5.87;;;20.30;99.90;;;;;;4941464;29;20460;-68
2021/08/16 09:28:45;;;;;;;6.77;5.90;;;20.20;99.90;;;;;;4958082;28;20755;-68
2021/08/16 09:31:13;;;;;;;9.63;6.80;;;20.20;99.90;;;;;;4958697;28;20547;-68
2021/08/16 09:33:40;;;;;;;9.10;6.50;;;20.10;99.90;;;;;;4958764;29;20519;-68
2021/08/16 09:36:06;;;;;;;7.47;6.73;;;20.10;99.90;;;;;;4957820;28;20460;-69
2021/08/16 09:38:35;;;;;;;8.30;5.80;;;20.10;99.90;;;;;;4960831;28;20977;-68
2021/08/16 09:41:02;;;;;;;12.43;6.90;;;20.10;99.90;;;;;;4952766;29;20491;-68
2021/08/16 09:43:31;;;;;;;7.40;6.70;;;20.10;99.90;;;;;;4955932;29;20464;-68
2021/08/16 09:46:00;;;;;;;16.13;7.90;;;20.10;99.90;;;;;;4956611;28;20496;-67
2021/08/16 09:48:26;;;;;;;8.67;7.90;;;20.10;99.90;;;;;;4955414;28;20968;-67
2021/08/16 09:50:55;;;;;;;9.00;8.20;;;20.10;99.90;;;;;;4955998;28;20488;-66
2021/08/16 09:53:24;;;;;;;10.20;9.30;;;20.00;99.90;;;;;;4967135;28;20495;-66
2021/08/16 09:55:53;;;;;;;14.40;10.20;;;19.80;99.90;;;;;;4956168;29;20465;-66
2021/08/16 09:58:20;;;;;;;13.87;9.90;;;19.60;99.90;;;;;;4956334;29;20469;-67
2021/08/16 10:00:50;;;;;;;10.93;10.03;;;19.40;99.90;;;;;;4955737;28;20500;-67
2021/08/16 10:03:17;;;;;;;15.30;12.33;;;19.10;99.90;;;;;;4956301;28;20602;-66
2021/08/16 10:05:46;;;;;;;15.90;11.27;;;18.90;99.90;;;;;;4955544;29;20821;-66
2021/08/16 10:08:14;;;;;;;14.03;12.60;;;18.60;99.90;;;;;;4956090;28;20461;-67
2021/08/16 10:10:43;;;;;;;18.13;12.80;;;18.60;99.90;;;;;;4955834;29;20485;-66
2021/08/16 10:13:11;;;;;;;16.13;12.10;;;18.50;99.90;;;;;;4953006;28;20474;-66
2021/08/16 10:15:40;;;;;;;14.23;12.80;;;18.50;99.90;;;;;;4936730;29;20557;-66
2021/08/16 10:18:13;;;;;;;12.67;11.40;;;18.40;99.90;;;;;;4936893;29;20884;-67
2021/08/16 10:20:40;;;;;;;21.33;11.33;;;18.40;99.90;;;;;;4937222;28;20493;-67
2021/08/16 10:23:18;;;;;;;11.97;10.17;;;18.40;99.90;;;;;;4974993;28;20468;-67
2021/08/16 10:25:46;;;;;;;13.67;11.10;;;18.30;99.90;;;;;;4974677;28;20484;-66
2021/08/16 10:28:24;;;;;;;15.10;11.70;;;18.20;99.90;;;;;;4975406;28;20828;-66
2021/08/16 10:30:50;;;;;;;12.60;10.87;;;18.20;99.90;;;;;;4975204;28;20562;-67
2021/08/16 10:33:19;;;;;;;11.33;9.43;;;18.20;99.90;;;;;;4974968;28;20507;-67
2021/08/16 10:35:46;;;;;;;13.07;10.97;;;18.20;99.90;;;;;;4969087;28;20457;-67
2021/08/16 10:38:15;;;;;;;14.37;11.60;;;18.20;99.90;;;;;;4955512;29;20465;-67
2021/08/16 10:40:43;;;;;;;13.10;11.80;;;18.20;99.90;;;;;;4954933;29;20945;-67
2021/08/16 10:43:11;;;;;;;13.80;11.27;;;18.10;99.90;;;;;;4955597;29;20465;-67
2021/08/16 10:45:45;;;;;;;18.50;12.20;;;18.10;99.90;;;;;;4955392;29;20489;-67
2021/08/16 10:48:23;;;;;;;14.43;11.47;;;18.10;99.90;;;;;;4955616;29;20484;-68
2021/08/16 10:51:02;;;;;;;12.33;11.20;;;18.10;99.90;;;;;;4965207;28;20492;-68
2021/08/16 10:53:28;;;;;;;11.30;10.03;;;18.10;99.90;;;;;;4974017;28;20912;-67
2021/08/16 10:55:56;;;;;;;10.63;9.53;;;18.00;99.90;;;;;;4974232;28;20459;-67
2021/08/16 10:58:23;;;;;;;12.60;9.47;;;17.90;99.90;;;;;;4974814;28;20507;-67
2021/08/16 11:00:50;;;;;;;8.73;8.03;;;17.90;99.90;;;;;;4973340;28;20557;-67
2021/08/16 11:03:24;;;;;;;9.93;9.03;;;17.80;99.90;;;;;;4954182;28;20524;-67
2021/08/16 11:05:51;;;;;;;12.53;8.50;;;17.70;99.90;;;;;;4935459;29;20985;-67
2021/08/16 11:08:17;;;;;;;14.53;8.57;;;17.70;99.90;;;;;;4967278;28;20986;-67
2021/08/16 11:10:46;;;;;;;12.90;7.70;;;17.70;99.90;;;;;;4973938;28;20566;-67
2021/08/16 11:13:15;;;;;;;10.30;9.00;;;17.70;99.90;;;;;;4974182;28;20503;-67
2021/08/16 11:15:42;;;;;;;9.13;8.27;;;17.60;99.90;;;;;;4974178;28;20890;-68
2021/08/16 11:18:11;;;;;;;9.53;8.63;;;17.60;99.90;;;;;;4974699;28;20571;-67
2021/08/16 11:20:39;;;;;;;11.40;8.07;;;17.50;99.90;;;;;;4973668;28;20515;-67
2021/08/16 11:23:06;;;;;;;8.47;7.00;;;17.40;99.90;;;;;;4972567;28;20964;-67
2021/08/16 11:25:32;;;;;;;7.03;6.07;;;17.40;99.90;;;;;;4963978;28;20511;-67
2021/08/16 11:28:01;;;;;;;13.07;5.67;;;17.30;99.90;;;;;;4955154;29;20460;-67
2021/08/16 11:30:28;;;;;;;5.60;5.20;;;17.20;99.90;;;;;;4956321;28;20491;-67
2021/08/16 11:32:55;;;;;;;5.30;4.90;;;17.20;99.90;;;;;;4973946;28;20916;-67
2021/08/16 11:35:24;;;;;;;4.47;4.27;;;17.20;99.90;;;;;;4973752;28;20460;-67
2021/08/16 11:37:53;;;;;;;3.63;3.43;;;17.20;99.90;;;;;;4974155;28;20467;-68
2021/08/16 11:40:20;;;;;;;4.27;4.03;;;17.20;99.90;;;;;;4971766;28;20468;-68
2021/08/16 11:42:47;;;;;;;3.33;3.20;;;17.30;99.90;;;;;;4956309;28;20468;-68
2021/08/16 11:45:16;;;;;;;3.90;3.70;;;17.30;99.90;;;;;;4954545;29;20853;-68
2021/08/16 11:47:45;;;;;;;3.70;3.40;;;17.40;99.90;;;;;;4954850;29;20777;-68
2021/08/16 11:50:14;;;;;;;6.00;4.43;;;17.50;99.90;;;;;;4953251;28;20540;-69
2021/08/16 11:52:41;;;;;;;5.40;5.00;;;17.50;99.90;;;;;;4954061;28;20984;-69
2021/08/16 11:55:12;;;;;;;4.30;4.10;;;17.60;99.90;;;;;;4953501;28;20932;-70
2021/08/16 11:57:39;;;;;;;4.33;3.63;;;17.50;99.90;;;;;;4967627;28;20798;-68
2021/08/16 12:00:08;;;;;;;4.20;3.90;;;17.50;99.90;;;;;;4958636;28;20492;-69
2021/08/16 12:02:37;;;;;;;3.63;3.37;;;17.50;99.90;;;;;;4954198;28;20488;-67
2021/08/16 12:05:05;;;;;;;3.43;3.33;;;17.40;99.90;;;;;;4964038;28;20915;-69
2021/08/16 12:07:31;;;;;;;4.20;3.80;;;17.50;99.90;;;;;;4962502;28;20518;-70
2021/08/16 12:09:59;;;;;;;4.20;3.83;;;17.50;99.90;;;;;;4955713;28;20460;-69
2021/08/16 12:12:29;;;;;;;3.00;2.90;;;17.50;99.90;;;;;;4953396;28;20563;-69
2021/08/16 12:15:05;;;;;;;3.40;3.23;;;17.40;99.90;;;;;;4952019;29;20497;-69
2021/08/16 12:17:32;;;;;;;3.40;3.30;;;17.30;99.90;;;;;;4952313;28;20519;-69
2021/08/16 12:20:04;;;;;;;2.93;2.83;;;17.30;99.90;;;;;;4949060;28;20472;-68
2021/08/16 12:22:32;;;;;;;3.50;3.20;;;17.30;99.90;;;;;;4952507;29;20468;-68
2021/08/16 12:25:05;;;;;;;2.90;2.90;;;17.30;99.90;;;;;;4952916;29;20489;-67
2021/08/16 12:27:33;;;;;;;6.50;3.70;;;17.40;99.90;;;;;;4947382;28;20473;-68
2021/08/16 12:30:00;;;;;;;3.30;3.20;;;17.40;99.90;;;;;;4948308;28;20498;-68
2021/08/16 12:32:29;;;;;;;2.70;2.60;;;17.40;99.90;;;;;;4953416;28;20548;-69
2021/08/16 12:34:58;;;;;;;3.13;3.10;;;17.40;99.90;;;;;;4952726;28;20492;-69
2021/08/16 12:37:26;;;;;;;3.70;3.47;;;17.50;99.90;;;;;;4953799;28;20488;-69
2021/08/16 12:39:53;;;;;;;4.17;3.30;;;17.50;99.90;;;;;;4953313;28;20461;-69
2021/08/16 12:42:27;;;;;;;3.37;3.17;;;17.40;99.90;;;;;;4953046;28;20600;-70
2021/08/16 12:44:57;;;;;;;3.10;2.90;;;17.40;99.90;;;;;;4956858;28;20791;-69
2021/08/16 12:47:30;;;;;;;2.50;2.40;;;17.40;99.90;;;;;;4968611;28;21005;-69
2021/08/16 12:49:57;;;;;;;2.57;2.57;;;17.30;99.90;;;;;;4955316;28;20464;-69
2021/08/16 12:52:24;;;;;;;3.17;2.97;;;17.20;99.90;;;;;;4970383;28;20827;-69
2021/08/16 12:54:51;;;;;;;3.33;3.13;;;17.20;99.90;;;;;;4953306;28;20871;-70
2021/08/16 12:57:18;;;;;;;3.10;2.90;;;17.20;99.90;;;;;;4953518;28;20468;-68
2021/08/16 12:59:46;;;;;;;3.37;2.90;;;17.10;99.90;;;;;;4954739;28;21055;-68
2021/08/16 13:02:23;;;;;;;2.63;2.63;;;17.10;99.90;;;;;;4952604;29;20488;-68
2021/08/16 13:04:49;;;;;;;3.33;3.20;;;17.10;99.90;;;;;;4965745;28;20498;-68
2021/08/16 13:07:16;;;;;;;4.27;3.10;;;17.10;99.90;;;;;;4971658;28;20796;-68
2021/08/16 13:09:43;;;;;;;3.20;3.10;;;17.10;99.90;;;;;;4966643;28;20466;-67
2021/08/16 13:12:10;;;;;;;2.83;2.70;;;17.00;99.90;;;;;;4966564;28;20525;-68
2021/08/16 13:14:37;;;;;;;3.20;3.10;;;17.00;99.90;;;;;;4962586;28;20815;-67
2021/08/16 13:17:04;;;;;;;2.90;2.80;;;17.00;99.90;;;;;;4953811;28;20539;-67
2021/08/16 13:19:32;;;;;;;2.70;2.60;;;17.00;99.90;;;;;;4960173;28;20813;-67
2021/08/16 13:21:59;;;;;;;3.10;2.90;;;17.00;99.90;;;;;;4968718;28;20487;-68
2021/08/16 13:24:26;;;;;;;3.33;3.13;;;17.10;99.90;;;;;;4967671;28;20559;-67
2021/08/16 13:26:52;;;;;;;4.90;3.50;;;17.10;99.90;;;;;;4965114;28;20541;-68
2021/08/16 13:29:19;;;;;;;3.80;3.60;;;17.00;99.90;;;;;;4969148;28;21009;-68
2021/08/16 13:31:46;;;;;;;3.47;3.30;;;17.00;99.90;;;;;;4949048;28;20544;-67
2021/08/16 13:34:13;;;;;;;3.20;2.90;;;17.00;99.90;;;;;;4951681;29;20464;-67
2021/08/16 13:36:41;;;;;;;3.23;3.07;;;17.10;99.90;;;;;;4956286;28;20468;-68
2021/08/16 13:39:08;;;;;;;4.73;3.03;;;17.10;99.90;;;;;;4956519;29;20487;-69
2021/08/16 13:41:34;;;;;;;2.40;2.30;;;17.10;99.90;;;;;;4963585;28;20486;-69
2021/08/16 13:44:01;;;;;;;2.73;2.67;;;17.00;99.90;;;;;;4959375;28;20849;-69
2021/08/16 13:46:28;;;;;;;2.47;2.20;;;17.00;99.90;;;;;;4956339;28;20857;-69
2021/08/16 13:48:54;;;;;;;2.30;2.20;;;17.00;99.90;;;;;;4970396;28;20538;-69
2021/08/16 13:51:21;;;;;;;2.40;2.30;;;17.00;99.90;;;;;;4959151;28;20502;-69
2021/08/16 13:53:49;;;;;;;2.20;2.07;;;17.00;99.90;;;;;;4966037;28;20823;-69
2021/08/16 13:56:16;;;;;;;3.20;2.90;;;16.90;99.90;;;;;;4957282;28;20543;-69
2021/08/16 13:58:43;;;;;;;2.40;2.33;;;16.80;99.90;;;;;;4958082;28;20465;-71
2021/08/16 14:01:10;;;;;;;4.23;2.50;;;16.80;99.90;;;;;;4957808;28;20563;-69
2021/08/16 14:03:36;;;;;;;1.57;1.57;;;16.80;99.90;;;;;;4955375;28;20893;-69
2021/08/16 14:06:03;;;;;;;1.93;1.83;;;16.70;99.90;;;;;;4955573;29;20988;-69
2021/08/16 14:08:30;;;;;;;2.47;2.40;;;16.70;99.90;;;;;;4962564;28;20471;-69
2021/08/16 14:10:58;;;;;;;3.50;2.50;;;16.70;99.90;;;;;;4970441;28;20489;-70
2021/08/16 14:13:28;;;;;;;5.07;2.07;;;16.70;99.90;;;;;;4951263;28;20549;-69
2021/08/16 14:15:55;;;;;;;2.47;2.37;;;16.80;99.90;;;;;;4948016;28;20515;-69
2021/08/16 14:18:22;;;;;;;2.40;2.30;;;16.80;99.90;;;;;;4956256;28;20512;-69
2021/08/16 14:20:49;;;;;;;2.17;2.17;;;16.80;99.90;;;;;;4955375;29;20492;-69
2021/08/16 14:23:16;;;;;;;3.00;2.37;;;16.90;99.90;;;;;;4954664;28;20465;-69
2021/08/16 14:25:42;;;;;;;2.83;2.30;;;16.90;99.90;;;;;;4956918;28;20543;-69
2021/08/16 14:28:10;;;;;;;2.87;2.63;;;16.90;99.90;;;;;;4956219;28;20465;-69
2021/08/16 14:30:37;;;;;;;2.07;1.93;;;16.90;99.90;;;;;;4957393;28;20559;-69
2021/08/16 14:33:05;;;;;;;8.80;4.33;;;16.80;99.90;;;;;;4967185;28;20537;-69
2021/08/16 14:35:31;;;;;;;2.30;2.20;;;16.80;99.90;;;;;;4962007;28;20508;-69
2021/08/16 14:37:58;;;;;;;4.27;2.67;;;16.80;99.90;;;;;;4984526;28;20470;-69
2021/08/16 14:40:24;;;;;;;2.70;2.43;;;16.80;99.90;;;;;;4974892;28;20464;-69
2021/08/16 14:42:51;;;;;;;2.10;1.90;;;16.80;99.90;;;;;;4957851;28;21040;-69
2021/08/16 14:45:19;;;;;;;2.30;2.03;;;16.80;99.90;;;;;;4944215;28;20532;-69
2021/08/16 14:47:46;;;;;;;2.90;2.23;;;16.70;99.90;;;;;;4955234;28;20468;-68
2021/08/16 14:50:13;;;;;;;2.07;1.90;;;16.70;99.90;;;;;;4969073;28;20473;-68
2021/08/16 14:52:39;;;;;;;3.03;2.40;;;16.70;99.90;;;;;;4962455;28;20469;-67
2021/08/16 14:55:06;;;;;;;2.33;2.13;;;16.60;99.90;;;;;;4953784;28;20500;-68
2021/08/16 14:57:33;;;;;;;3.50;2.93;;;16.50;99.90;;;;;;4955641;28;20533;-69
2021/08/16 15:00:00;;;;;;;2.63;1.93;;;16.50;99.90;;;;;;4955589;28;20527;-68
2021/08/16 15:02:28;;;;;;;7.80;2.00;;;16.50;99.90;;;;;;4963255;28;20507;-69
2021/08/16 15:04:54;;;;;;;1.60;1.50;;;16.50;99.90;;;;;;4953306;28;20472;-69
2021/08/16 15:07:21;;;;;;;2.10;2.00;;;16.40;99.90;;;;;;4955183;28;20512;-69
2021/08/16 15:09:48;;;;;;;2.43;1.90;;;16.40;99.90;;;;;;4955189;28;20468;-68
2021/08/16 15:12:14;;;;;;;17.17;2.13;;;16.30;99.90;;;;;;4948302;28;20543;-68
2021/08/16 15:14:41;;;;;;;2.10;1.90;;;16.30;99.90;;;;;;4935997;28;20502;-68
2021/08/16 15:17:08;;;;;;;1.83;1.63;;;16.30;99.90;;;;;;4947733;28;20539;-69
2021/08/16 15:19:37;;;;;;;3.50;1.73;;;16.20;99.90;;;;;;4954894;28;20472;-68
2021/08/16 15:22:04;;;;;;;2.20;2.03;;;16.20;99.90;;;;;;4953794;28;20485;-68
2021/08/16 15:24:31;;;;;;;2.87;1.73;;;16.20;99.90;;;;;;4955098;28;20464;-69
2021/08/16 15:26:57;;;;;;;2.20;2.10;;;16.20;99.90;;;;;;4953547;28;20492;-69
2021/08/16 15:29:30;;;;;;;6.37;2.33;;;16.10;99.90;;;;;;4953749;28;20464;-68
2021/08/16 15:31:57;;;;;;;1.67;1.57;;;16.20;99.90;;;;;;4946305;28;20477;-67
2021/08/16 15:34:23;;;;;;;2.10;1.90;;;16.10;99.90;;;;;;4954573;29;20531;-67
2021/08/16 15:36:51;;;;;;;3.87;1.40;;;16.20;99.90;;;;;;4953304;28;20520;-67
2021/08/16 15:39:18;;;;;;;2.50;1.60;;;16.20;99.90;;;;;;4954651;28;20994;-67
2021/08/16 15:41:45;;;;;;;9.83;2.27;;;16.20;99.90;;;;;;4943392;28;20873;-68
2021/08/16 15:44:11;;;;;;;2.60;1.67;;;16.20;99.90;;;;;;4952256;28;20491;-67
2021/08/16 15:46:38;;;;;;;3.00;1.43;;;16.20;99.90;;;;;;4953254;28;20485;-67
2021/08/16 15:49:05;;;;;;;2.60;2.13;;;16.20;99.90;;;;;;4953871;28;20502;-65
2021/08/16 15:51:32;;;;;;;1.83;1.70;;;16.20;99.90;;;;;;4952308;28;20496;-68
2021/08/16 15:54:01;;;;;;;2.20;2.00;;;16.30;99.90;;;;;;4947284;28;20465;-67
2021/08/16 15:56:27;;;;;;;3.10;2.10;;;16.20;99.90;;;;;;4951176;28;20984;-68
2021/08/16 15:58:54;;;;;;;3.93;1.97;;;16.20;99.90;;;;;;4954058;29;20465;-68
2021/08/16 16:01:21;;;;;;;2.43;1.93;;;16.20;99.90;;;;;;4951964;28;20583;-68
2021/08/16 16:03:48;;;;;;;3.20;1.73;;;16.10;99.90;;;;;;4953665;28;20830;-68
2021/08/16 16:06:17;;;;;;;1.80;1.70;;;16.10;99.90;;;;;;4950702;28;20477;-68
2021/08/16 16:08:43;;;;;;;7.73;2.17;;;16.10;99.90;;;;;;4948443;28;20468;-68
2021/08/16 16:11:11;;;;;;;2.53;2.33;;;16.20;99.90;;;;;;4953262;28;20650;-68
2021/08/16 16:13:38;;;;;;;3.20;1.80;;;16.20;99.90;;;;;;4951326;28;20497;-67
2021/08/16 16:16:05;;;;;;;3.07;1.70;;;16.10;99.90;;;;;;4958352;28;20464;-67
2021/08/16 16:18:32;;;;;;;1.73;1.63;;;16.20;99.90;;;;;;4958062;28;20476;-68
2021/08/16 16:20:59;;;;;;;1.47;1.37;;;16.10;99.90;;;;;;4952427;28;20907;-67
2021/08/16 16:23:26;;;;;;;3.30;2.00;;;16.20;99.90;;;;;;4950607;28;20474;-67
2021/08/16 16:25:53;;;;;;;1.63;1.50;;;16.20;99.90;;;;;;4938506;28;20492;-67
2021/08/16 16:28:21;;;;;;;2.70;1.70;;;16.20;99.90;;;;;;4952830;28;20472;-67
2021/08/16 16:30:49;;;;;;;3.00;2.10;;;16.20;99.90;;;;;;4952619;28;20493;-67
2021/08/16 16:33:16;;;;;;;2.97;2.50;;;16.20;99.90;;;;;;4953672;28;20572;-67
2021/08/16 16:35:43;;;;;;;3.97;1.73;;;16.20;99.90;;;;;;4952787;28;20862;-67
2021/08/16 16:38:09;;;;;;;2.47;1.70;;;16.30;99.90;;;;;;4951664;28;20806;-67
2021/08/16 16:40:36;;;;;;;2.20;2.00;;;16.50;99.90;;;;;;4953621;28;20567;-67
2021/08/16 16:43:03;;;;;;;6.50;1.83;;;16.60;99.90;;;;;;4953857;28;20827;-67
2021/08/16 16:45:31;;;;;;;3.47;2.07;;;16.80;99.90;;;;;;4952777;28;20469;-67